Time;durP1;ratioP1;P1;durP2;ratioP2;P2;SDS_P1;SDS_P2;PMS_P1;PMS_P2;Temp;Humidity;BMP_temperature;BMP_pressure;BME280_temperature;BME280_humidity;BME280_pressure;Samples;Min_cycle;Max_cycle;Signal;HPM_P1;HPM_P2
2023/03/20 00:00:41;;;;;;;0.40;0.40;;;8.00;99.90;;;;;;5033549;28;20183;-68
2023/03/20 00:03:10;;;;;;;0.40;0.40;;;7.90;99.90;;;;;;5032702;28;20270;-68
2023/03/20 00:05:36;;;;;;;0.38;0.38;;;7.90;99.90;;;;;;5032694;28;20175;-68
2023/03/20 00:08:02;;;;;;;0.68;0.40;;;7.90;99.90;;;;;;5032687;28;20254;-68
2023/03/20 00:10:45;;;;;;;0.40;0.40;;;8.00;99.90;;;;;;5033061;28;20189;-68
2023/03/20 00:13:23;;;;;;;0.50;0.50;;;8.00;99.90;;;;;;5032776;28;20190;-69
2023/03/20 00:15:48;;;;;;;0.32;0.32;;;8.00;99.90;;;;;;5032826;28;20289;-69
2023/03/20 00:18:21;;;;;;;0.40;0.40;;;8.00;99.90;;;;;;5033040;28;20292;-68
2023/03/20 00:20:49;;;;;;;0.40;0.40;;;8.10;99.90;;;;;;5032765;28;20191;-68
2023/03/20 00:23:15;;;;;;;0.40;0.40;;;8.10;99.90;;;;;;5032595;28;20272;-67
2023/03/20 00:25:42;;;;;;;0.40;0.40;;;8.20;99.90;;;;;;5032874;28;20257;-67
2023/03/20 00:28:31;;;;;;;0.30;0.30;;;8.20;99.90;;;;;;5032905;28;20678;-68
2023/03/20 00:30:57;;;;;;;0.93;0.93;;;8.30;99.90;;;;;;5034593;28;20166;-68
2023/03/20 00:33:23;;;;;;;0.40;0.40;;;8.30;99.90;;;;;;5018522;28;20344;-68
2023/03/20 00:35:49;;;;;;;0.60;0.60;;;8.30;99.90;;;;;;5036192;28;20441;-68
2023/03/20 00:38:15;;;;;;;0.60;0.60;;;8.40;99.90;;;;;;5035995;28;20170;-68
2023/03/20 00:40:40;;;;;;;0.40;0.40;;;8.30;99.90;;;;;;5036099;28;20447;-69
2023/03/20 00:43:08;;;;;;;0.57;0.57;;;8.30;99.90;;;;;;5035984;28;20205;-68
2023/03/20 00:45:34;;;;;;;0.60;0.60;;;8.20;99.90;;;;;;5036221;28;20178;-68
2023/03/20 00:48:02;;;;;;;0.40;0.40;;;8.20;99.90;;;;;;5035932;28;20173;-68
2023/03/20 00:50:29;;;;;;;0.40;0.40;;;8.20;99.90;;;;;;5036107;28;20176;-68
2023/03/20 00:52:56;;;;;;;0.40;0.40;;;8.10;99.90;;;;;;5035971;28;20198;-68
2023/03/20 00:55:25;;;;;;;0.32;0.32;;;8.20;99.90;;;;;;5018130;28;20178;-68
2023/03/20 00:57:57;;;;;;;0.40;0.40;;;8.10;99.90;;;;;;5035808;28;20174;-68
2023/03/20 01:00:35;;;;;;;0.40;0.40;;;8.20;99.90;;;;;;5035980;28;20223;-68
2023/03/20 01:03:14;;;;;;;0.45;0.45;;;8.20;99.90;;;;;;5035732;28;20250;-68
2023/03/20 01:05:40;;;;;;;0.30;0.30;;;8.10;99.90;;;;;;5035857;28;20172;-68
2023/03/20 01:08:12;;;;;;;0.40;0.40;;;8.10;99.90;;;;;;5035640;28;20186;-68
2023/03/20 01:10:38;;;;;;;0.40;0.40;;;8.20;99.90;;;;;;5035757;28;20400;-68
2023/03/20 01:13:11;;;;;;;1.77;0.50;;;8.10;99.90;;;;;;5035507;28;20208;-68
2023/03/20 01:15:37;;;;;;;0.40;0.40;;;8.00;99.90;;;;;;5035719;28;20698;-69
2023/03/20 01:18:02;;;;;;;0.40;0.40;;;8.10;99.90;;;;;;5035363;28;20315;-68
2023/03/20 01:20:29;;;;;;;0.47;0.47;;;8.10;99.90;;;;;;5035478;28;20184;-68
2023/03/20 01:22:55;;;;;;;0.40;0.40;;;8.10;99.90;;;;;;5035311;28;20284;-69
2023/03/20 01:25:21;;;;;;;1.03;1.03;;;8.20;99.90;;;;;;5035484;28;20280;-67
2023/03/20 01:27:52;;;;;;;0.50;0.50;;;8.20;99.90;;;;;;5017464;28;20531;-68
2023/03/20 01:30:27;;;;;;;0.63;0.50;;;8.20;99.90;;;;;;5035475;28;20212;-68
2023/03/20 01:32:54;;;;;;;0.43;0.43;;;8.30;99.90;;;;;;5035230;28;20197;-69
2023/03/20 01:35:22;;;;;;;0.40;0.40;;;8.30;99.90;;;;;;5035176;28;20170;-69
2023/03/20 01:37:49;;;;;;;0.40;0.40;;;8.30;99.90;;;;;;5035001;28;20599;-67
2023/03/20 01:40:39;;;;;;;0.95;0.95;;;8.20;99.90;;;;;;5035300;28;20177;-68
2023/03/20 01:43:13;;;;;;;0.35;0.35;;;8.20;99.90;;;;;;5034042;28;20740;-68
2023/03/20 01:45:52;;;;;;;0.50;0.50;;;8.30;99.90;;;;;;5035197;28;20200;-69
2023/03/20 01:48:19;;;;;;;0.30;0.30;;;8.40;99.90;;;;;;5035093;28;20183;-68
2023/03/20 01:50:44;;;;;;;0.40;0.40;;;8.40;99.90;;;;;;5034987;28;20643;-68
2023/03/20 01:53:26;;;;;;;0.30;0.30;;;8.40;99.90;;;;;;5035164;28;20200;-68
2023/03/20 01:55:56;;;;;;;0.82;0.82;;;8.50;99.90;;;;;;5034877;28;20460;-68
2023/03/20 01:58:30;;;;;;;0.50;0.50;;;8.60;99.90;;;;;;5034840;28;20179;-69
2023/03/20 02:00:56;;;;;;;0.30;0.30;;;8.60;99.90;;;;;;5034719;28;20185;-68
2023/03/20 02:03:23;;;;;;;0.40;0.40;;;8.50;99.90;;;;;;5034587;28;20193;-68
2023/03/20 02:05:49;;;;;;;0.30;0.30;;;8.50;99.90;;;;;;5034695;28;20228;-68
2023/03/20 02:08:29;;;;;;;0.30;0.30;;;8.50;99.90;;;;;;5034582;28;20251;-69
2023/03/20 02:10:58;;;;;;;0.30;0.30;;;8.30;99.90;;;;;;5034773;28;20173;-67
2023/03/20 02:13:26;;;;;;;0.60;0.60;;;8.40;99.90;;;;;;5034342;28;20193;-68
2023/03/20 02:15:56;;;;;;;0.60;0.50;;;8.50;99.90;;;;;;5034302;28;20195;-68
2023/03/20 02:18:23;;;;;;;0.52;0.52;;;8.50;99.90;;;;;;5034492;28;20569;-68
2023/03/20 02:21:10;;;;;;;0.80;0.80;;;8.40;99.90;;;;;;5034453;28;20174;-68
2023/03/20 02:24:14;;;;;;;1.25;1.23;;;8.40;99.90;;;;;;5016679;28;20662;-68
2023/03/20 02:27:05;;;;;;;0.60;0.60;;;8.50;99.90;;;;;;5034013;28;20586;-67
2023/03/20 02:30:08;;;;;;;1.15;0.98;;;8.60;99.90;;;;;;5034390;28;20186;-68
2023/03/20 02:33:04;;;;;;;0.50;0.50;;;8.60;99.90;;;;;;5034185;28;20667;-68
2023/03/20 02:36:04;;;;;;;0.50;0.50;;;8.60;99.90;;;;;;5033952;28;20209;-68
2023/03/20 02:39:06;;;;;;;1.00;1.00;;;8.50;99.90;;;;;;5034135;28;20676;-68
2023/03/20 02:41:41;;;;;;;0.40;0.40;;;8.50;99.90;;;;;;5032655;28;20304;-68
2023/03/20 02:44:12;;;;;;;0.70;0.70;;;8.50;99.90;;;;;;5033119;28;20483;-68
2023/03/20 02:46:48;;;;;;;0.47;0.47;;;8.40;99.90;;;;;;5033079;28;20177;-68
2023/03/20 02:49:14;;;;;;;0.30;0.30;;;8.30;99.90;;;;;;5033996;28;20209;-67
2023/03/20 02:51:52;;;;;;;0.40;0.40;;;8.30;99.90;;;;;;5033908;28;20182;-68
2023/03/20 02:54:27;;;;;;;0.77;0.77;;;8.30;99.90;;;;;;5033896;28;20150;-68
2023/03/20 02:57:07;;;;;;;0.35;0.35;;;8.10;99.90;;;;;;5033452;28;20205;-68
2023/03/20 02:59:45;;;;;;;0.40;0.40;;;8.00;99.90;;;;;;5033802;28;20236;-67
2023/03/20 03:02:29;;;;;;;1.13;1.13;;;8.10;99.90;;;;;;5033815;28;20196;-68
2023/03/20 03:04:59;;;;;;;0.43;0.40;;;8.00;99.90;;;;;;5033657;28;20180;-68
2023/03/20 03:07:30;;;;;;;0.57;0.57;;;8.00;99.90;;;;;;5015850;28;20174;-68
2023/03/20 03:13:21;;;;;;;1.13;0.60;;;7.90;99.90;;;;;;5034007;28;20189;-68
2023/03/20 03:15:52;;;;;;;0.40;0.40;;;7.80;99.90;;;;;;5033319;28;20567;-67
2023/03/20 03:18:21;;;;;;;0.40;0.40;;;7.80;99.90;;;;;;5033396;28;20180;-68
2023/03/20 03:20:50;;;;;;;0.93;0.93;;;7.90;99.90;;;;;;5033776;28;20268;-67
2023/03/20 03:23:30;;;;;;;0.50;0.50;;;7.90;99.90;;;;;;5033113;28;20289;-68
2023/03/20 03:26:01;;;;;;;0.32;0.32;;;7.90;99.90;;;;;;5033240;28;20174;-68
2023/03/20 03:28:36;;;;;;;1.60;0.93;;;7.90;99.90;;;;;;5033598;28;20212;-69
2023/03/20 03:31:04;;;;;;;0.52;0.52;;;8.00;99.90;;;;;;5033702;28;20543;-68
2023/03/20 03:33:31;;;;;;;0.40;0.40;;;8.00;99.90;;;;;;5015401;28;20201;-68
2023/03/20 03:36:26;;;;;;;0.30;0.30;;;8.00;99.90;;;;;;5033004;28;20223;-67
2023/03/20 03:39:02;;;;;;;0.50;0.50;;;8.00;99.90;;;;;;5033319;28;20170;-68
2023/03/20 03:41:39;;;;;;;0.30;0.30;;;8.00;99.90;;;;;;5033542;28;20261;-68
2023/03/20 03:44:12;;;;;;;0.40;0.40;;;7.90;99.90;;;;;;5033008;28;20189;-69
2023/03/20 03:46:51;;;;;;;0.52;0.52;;;8.00;99.90;;;;;;5033239;28;20184;-67
2023/03/20 03:49:25;;;;;;;0.45;0.45;;;8.00;99.90;;;;;;5033304;28;20185;-69
2023/03/20 03:51:55;;;;;;;0.30;0.30;;;8.10;99.90;;;;;;5033400;28;20201;-68
2023/03/20 03:54:44;;;;;;;0.50;0.50;;;8.10;99.90;;;;;;5033240;28;20260;-68
2023/03/20 03:57:13;;;;;;;0.40;0.40;;;8.00;99.90;;;;;;5032779;28;20206;-68
2023/03/20 03:59:46;;;;;;;0.30;0.30;;;8.00;99.90;;;;;;5032961;28;20181;-68
2023/03/20 04:02:12;;;;;;;0.38;0.38;;;8.00;99.90;;;;;;5033112;28;20198;-68
2023/03/20 04:04:45;;;;;;;0.50;0.50;;;7.90;99.90;;;;;;5032939;28;20194;-68
2023/03/20 04:07:12;;;;;;;0.30;0.30;;;7.90;99.90;;;;;;5018995;28;20412;-68
2023/03/20 04:09:37;;;;;;;0.50;0.50;;;7.90;99.90;;;;;;5036720;28;20630;-67
2023/03/20 04:12:04;;;;;;;0.40;0.40;;;8.00;99.90;;;;;;5036859;28;20205;-68
2023/03/20 04:14:31;;;;;;;0.40;0.40;;;8.00;99.90;;;;;;5036668;28;20230;-67
2023/03/20 04:16:56;;;;;;;0.40;0.40;;;8.00;99.90;;;;;;5036597;28;20238;-68
2023/03/20 04:19:22;;;;;;;0.30;0.30;;;8.00;99.90;;;;;;5036620;28;20555;-68
2023/03/20 04:21:47;;;;;;;0.93;0.63;;;8.00;99.90;;;;;;5036715;28;20188;-67
2023/03/20 04:24:14;;;;;;;0.50;0.50;;;8.00;99.90;;;;;;5036541;28;20638;-68
2023/03/20 04:26:40;;;;;;;0.80;0.80;;;8.00;99.90;;;;;;5036361;28;20170;-68
2023/03/20 04:29:05;;;;;;;0.30;0.30;;;8.00;99.90;;;;;;5036351;28;20193;-68
2023/03/20 04:31:31;;;;;;;2.00;0.60;;;7.90;99.90;;;;;;5036292;28;20409;-68
2023/03/20 04:33:57;;;;;;;0.30;0.30;;;8.00;99.90;;;;;;5036377;28;20180;-68
2023/03/20 04:36:23;;;;;;;0.40;0.40;;;8.10;99.90;;;;;;5036133;28;20479;-68
2023/03/20 04:38:48;;;;;;;0.40;0.40;;;8.20;99.90;;;;;;5036254;28;20181;-68
2023/03/20 04:41:14;;;;;;;0.97;0.87;;;8.20;99.90;;;;;;5018357;28;20181;-68
2023/03/20 04:43:40;;;;;;;0.43;0.43;;;8.20;99.90;;;;;;5035880;28;20716;-68
2023/03/20 04:46:06;;;;;;;0.60;0.60;;;8.20;99.90;;;;;;5036114;28;20283;-68
2023/03/20 04:48:32;;;;;;;0.40;0.40;;;8.20;99.90;;;;;;5036349;28;20174;-68
2023/03/20 04:50:57;;;;;;;0.40;0.40;;;8.20;99.90;;;;;;5035964;28;20236;-68
2023/03/20 04:53:23;;;;;;;0.40;0.40;;;8.20;99.90;;;;;;5018217;28;20734;-68
2023/03/20 04:55:49;;;;;;;1.00;0.63;;;8.30;99.90;;;;;;5035902;28;20237;-68
2023/03/20 04:58:15;;;;;;;0.45;0.45;;;8.30;99.90;;;;;;5036029;28;20189;-68
2023/03/20 05:00:42;;;;;;;0.80;0.80;;;8.20;99.90;;;;;;5035817;28;20585;-68
2023/03/20 05:03:08;;;;;;;0.82;0.82;;;8.10;99.90;;;;;;5035640;28;20474;-69
2023/03/20 05:05:36;;;;;;;0.47;0.47;;;8.10;99.90;;;;;;5035830;28;20170;-68
2023/03/20 05:08:04;;;;;;;4.60;0.77;;;8.10;99.90;;;;;;5035666;28;20178;-68
2023/03/20 05:10:30;;;;;;;0.77;0.77;;;8.10;99.90;;;;;;5035803;28;20235;-68
2023/03/20 05:12:55;;;;;;;0.60;0.50;;;8.20;99.90;;;;;;5035615;28;20569;-68
2023/03/20 05:15:21;;;;;;;0.40;0.40;;;8.10;99.90;;;;;;5035461;28;20401;-68
2023/03/20 05:17:47;;;;;;;0.40;0.40;;;8.10;99.90;;;;;;5034115;28;20516;-68
2023/03/20 05:20:13;;;;;;;0.40;0.40;;;8.10;99.90;;;;;;5035547;28;20249;-68
2023/03/20 05:22:38;;;;;;;0.40;0.40;;;8.10;99.90;;;;;;5035421;28;20191;-68
2023/03/20 05:25:05;;;;;;;1.00;1.00;;;8.20;99.90;;;;;;5035437;28;20421;-68
2023/03/20 05:27:30;;;;;;;1.38;0.70;;;8.20;99.90;;;;;;5035150;28;20257;-68
2023/03/20 05:29:56;;;;;;;0.53;0.50;;;8.30;99.90;;;;;;5035287;28;20254;-68
2023/03/20 05:32:21;;;;;;;0.40;0.40;;;8.30;99.90;;;;;;5035227;28;20534;-67
2023/03/20 05:34:47;;;;;;;0.40;0.40;;;8.20;99.90;;;;;;5035176;28;20184;-68
2023/03/20 05:37:12;;;;;;;0.60;0.60;;;8.00;99.90;;;;;;5035018;28;20202;-68
2023/03/20 05:39:38;;;;;;;0.87;0.60;;;8.00;99.90;;;;;;5035333;28;20539;-68
2023/03/20 05:42:04;;;;;;;1.37;1.27;;;8.10;99.90;;;;;;5035206;28;20662;-68
2023/03/20 05:44:30;;;;;;;0.40;0.40;;;8.10;99.90;;;;;;5034868;28;20205;-68
2023/03/20 05:46:55;;;;;;;1.05;0.95;;;8.20;99.90;;;;;;5034861;28;20205;-70
2023/03/20 05:49:21;;;;;;;1.10;1.00;;;8.20;99.90;;;;;;5034967;28;20213;-68
2023/03/20 05:51:47;;;;;;;1.23;1.23;;;8.20;99.90;;;;;;5034888;28;20187;-68
2023/03/20 05:54:12;;;;;;;0.40;0.40;;;8.20;99.90;;;;;;5034862;28;20536;-68
2023/03/20 05:56:38;;;;;;;0.40;0.40;;;8.10;99.90;;;;;;5034652;28;20540;-68
2023/03/20 05:59:04;;;;;;;0.60;0.60;;;8.20;99.90;;;;;;5034760;28;20174;-68
2023/03/20 06:01:30;;;;;;;1.27;1.25;;;8.30;99.90;;;;;;5034650;28;20175;-68
2023/03/20 06:03:55;;;;;;;0.53;0.50;;;8.20;99.90;;;;;;5034798;28;20181;-68
2023/03/20 06:06:21;;;;;;;0.40;0.40;;;8.20;99.90;;;;;;5034546;28;20179;-68
2023/03/20 06:08:46;;;;;;;0.87;0.87;;;8.20;99.90;;;;;;5034813;28;20181;-68
2023/03/20 06:11:12;;;;;;;0.90;0.60;;;8.40;99.90;;;;;;5034615;28;20189;-67
2023/03/20 06:13:38;;;;;;;1.47;1.37;;;8.40;99.90;;;;;;5016647;28;20202;-68
2023/03/20 06:16:04;;;;;;;1.13;1.03;;;8.30;99.90;;;;;;5016522;28;20214;-68
2023/03/20 06:18:29;;;;;;;0.90;0.90;;;8.30;99.90;;;;;;5034601;28;20242;-68
2023/03/20 06:20:56;;;;;;;1.17;1.17;;;8.40;99.90;;;;;;5034441;28;20409;-68
2023/03/20 06:23:22;;;;;;;6.75;1.52;;;8.30;99.90;;;;;;5034294;28;20586;-68
2023/03/20 06:25:48;;;;;;;0.43;0.43;;;8.30;99.90;;;;;;5034013;28;20181;-68
2023/03/20 06:28:14;;;;;;;1.80;1.37;;;8.30;99.90;;;;;;5034065;28;20405;-68
2023/03/20 06:30:39;;;;;;;0.95;0.93;;;8.40;99.90;;;;;;5034366;28;20404;-68
2023/03/20 06:33:06;;;;;;;0.60;0.60;;;8.30;99.90;;;;;;5034070;28;20208;-68
2023/03/20 06:35:32;;;;;;;1.02;0.90;;;8.30;99.90;;;;;;5034134;28;20216;-68
2023/03/20 06:37:58;;;;;;;0.70;0.70;;;8.20;99.90;;;;;;5033866;28;20261;-68
2023/03/20 06:40:26;;;;;;;0.70;0.70;;;8.00;99.90;;;;;;5034078;28;20170;-68
2023/03/20 06:42:52;;;;;;;1.25;1.25;;;7.90;99.90;;;;;;5033494;28;20190;-68
2023/03/20 06:45:18;;;;;;;3.53;2.08;;;7.90;99.90;;;;;;5033914;28;20486;-67
2023/03/20 06:47:45;;;;;;;0.77;0.77;;;8.00;99.90;;;;;;5033738;28;20494;-68
2023/03/20 06:50:12;;;;;;;1.42;1.38;;;7.90;99.90;;;;;;5033838;28;20270;-68
2023/03/20 06:52:38;;;;;;;1.98;0.95;;;7.90;99.90;;;;;;5033785;28;20205;-68
2023/03/20 06:55:05;;;;;;;0.63;0.63;;;8.10;99.90;;;;;;5033719;28;20564;-69
2023/03/20 06:57:31;;;;;;;1.40;1.40;;;8.00;99.90;;;;;;5033460;28;20227;-68
2023/03/20 06:59:56;;;;;;;0.80;0.80;;;8.10;99.90;;;;;;5033708;28;20252;-68
2023/03/20 07:02:23;;;;;;;0.60;0.60;;;8.10;99.90;;;;;;5033564;28;20672;-68
2023/03/20 07:04:48;;;;;;;1.08;0.70;;;8.10;99.90;;;;;;5033636;28;20250;-67
2023/03/20 07:07:14;;;;;;;1.60;1.50;;;8.10;99.90;;;;;;5033457;28;20727;-68
2023/03/20 07:09:40;;;;;;;2.67;2.50;;;8.20;99.90;;;;;;5033681;28;20527;-68
2023/03/20 07:12:10;;;;;;;0.70;0.70;;;8.30;99.90;;;;;;5033405;28;20240;-68
2023/03/20 07:14:35;;;;;;;2.25;2.15;;;8.40;99.90;;;;;;5033773;28;20166;-68
2023/03/20 07:17:01;;;;;;;1.43;1.33;;;8.50;99.90;;;;;;5033256;28;20209;-68
2023/03/20 07:19:27;;;;;;;0.50;0.50;;;8.60;99.90;;;;;;5033406;28;20167;-67
2023/03/20 07:22:00;;;;;;;1.17;0.87;;;8.80;99.90;;;;;;5033384;28;20191;-68
2023/03/20 07:24:26;;;;;;;2.38;1.67;;;8.80;99.90;;;;;;5033597;28;20174;-68
2023/03/20 07:26:52;;;;;;;0.52;0.52;;;8.90;99.90;;;;;;5015457;28;20708;-68
2023/03/20 07:29:18;;;;;;;1.77;1.57;;;9.00;99.90;;;;;;5033473;28;20265;-68
2023/03/20 07:31:43;;;;;;;0.40;0.40;;;9.00;99.90;;;;;;5033449;28;20246;-68
2023/03/20 07:34:09;;;;;;;0.83;0.83;;;8.90;99.90;;;;;;5033380;28;20283;-68
2023/03/20 07:36:35;;;;;;;0.40;0.40;;;8.80;99.90;;;;;;5033031;28;20198;-68
2023/03/20 07:39:01;;;;;;;1.63;1.20;;;8.70;99.90;;;;;;5033456;28;20643;-68
2023/03/20 07:41:26;;;;;;;0.80;0.80;;;8.80;99.90;;;;;;5034364;28;20171;-67
2023/03/20 07:43:52;;;;;;;1.17;1.13;;;8.80;99.90;;;;;;5017926;28;20191;-68
2023/03/20 07:46:17;;;;;;;0.67;0.67;;;8.80;99.90;;;;;;5036896;28;20171;-69
2023/03/20 07:48:43;;;;;;;0.63;0.63;;;8.80;99.90;;;;;;5037204;28;20198;-68
2023/03/20 07:51:09;;;;;;;0.57;0.57;;;8.90;99.90;;;;;;5037820;28;20245;-68
2023/03/20 07:53:34;;;;;;;1.70;0.93;;;9.00;99.90;;;;;;5037163;28;20665;-68
2023/03/20 07:56:00;;;;;;;0.83;0.83;;;9.10;99.90;;;;;;5037017;28;20229;-68
2023/03/20 07:58:26;;;;;;;2.00;1.07;;;9.30;99.90;;;;;;5037243;28;20177;-69
2023/03/20 08:00:52;;;;;;;0.70;0.70;;;9.50;99.90;;;;;;5037054;28;20246;-68
2023/03/20 08:03:17;;;;;;;0.60;0.60;;;9.60;99.90;;;;;;5036888;28;20709;-68
2023/03/20 08:05:43;;;;;;;1.17;0.60;;;9.70;99.90;;;;;;5037397;28;20434;-68
2023/03/20 08:08:08;;;;;;;0.93;0.93;;;9.70;99.90;;;;;;5037370;28;20647;-68
2023/03/20 08:10:34;;;;;;;0.40;0.40;;;9.80;99.90;;;;;;5036965;28;20182;-68
2023/03/20 08:13:00;;;;;;;0.57;0.57;;;9.70;99.90;;;;;;5037132;28;20708;-68
2023/03/20 08:15:25;;;;;;;0.63;0.63;;;9.50;99.90;;;;;;5037347;28;20171;-67
2023/03/20 08:17:51;;;;;;;0.73;0.73;;;9.40;99.90;;;;;;5037106;28;20612;-67
2023/03/20 08:20:17;;;;;;;1.13;1.03;;;9.60;99.90;;;;;;5037299;28;20178;-68
2023/03/20 08:22:45;;;;;;;0.70;0.70;;;9.70;99.90;;;;;;5036862;28;20240;-68
2023/03/20 08:25:11;;;;;;;1.30;1.15;;;9.70;99.90;;;;;;5036762;28;20175;-68
2023/03/20 08:27:37;;;;;;;0.80;0.80;;;9.90;99.90;;;;;;5036409;28;20520;-68
2023/03/20 08:30:03;;;;;;;0.73;0.73;;;10.00;99.70;;;;;;5036865;28;20409;-68
2023/03/20 08:32:29;;;;;;;0.82;0.75;;;10.10;99.20;;;;;;5036737;28;20429;-68
2023/03/20 08:34:55;;;;;;;1.17;1.17;;;10.20;98.60;;;;;;5019400;28;20569;-69
2023/03/20 08:37:21;;;;;;;0.50;0.50;;;10.40;98.00;;;;;;5036289;28;20195;-68
2023/03/20 08:39:47;;;;;;;2.97;0.90;;;10.40;97.80;;;;;;5036636;28;20228;-68
2023/03/20 08:42:13;;;;;;;0.50;0.50;;;10.40;97.70;;;;;;5036352;28;20216;-68
2023/03/20 08:44:39;;;;;;;1.13;1.13;;;10.40;97.80;;;;;;5018319;28;20437;-68
2023/03/20 08:47:06;;;;;;;1.93;1.83;;;10.30;97.50;;;;;;5036097;28;20420;-68
2023/03/20 08:49:32;;;;;;;0.77;0.77;;;10.20;97.80;;;;;;5035924;28;20194;-68
2023/03/20 08:51:59;;;;;;;0.40;0.40;;;10.20;97.70;;;;;;5035795;28;20194;-68
2023/03/20 08:54:24;;;;;;;0.80;0.80;;;10.20;97.60;;;;;;5036278;28;20171;-68
2023/03/20 08:56:50;;;;;;;0.43;0.43;;;10.20;97.40;;;;;;5035852;28;20213;-68
2023/03/20 08:59:16;;;;;;;6.07;3.00;;;10.30;96.90;;;;;;5036421;28;20191;-68
2023/03/20 09:01:41;;;;;;;6.40;3.90;;;10.40;97.10;;;;;;5035711;28;20202;-69
2023/03/20 09:04:07;;;;;;;1.50;0.50;;;10.50;96.60;;;;;;5035720;28;20536;-68
2023/03/20 09:06:35;;;;;;;2.40;1.27;;;10.60;96.80;;;;;;5035729;28;20178;-69
2023/03/20 09:09:02;;;;;;;1.10;1.05;;;10.80;96.80;;;;;;5035920;28;20512;-69
2023/03/20 09:11:28;;;;;;;0.40;0.40;;;11.10;96.10;;;;;;5035599;28;20182;-68
2023/03/20 09:13:54;;;;;;;0.70;0.70;;;11.30;95.60;;;;;;5035600;28;20174;-68
2023/03/20 09:16:19;;;;;;;1.47;1.37;;;11.40;95.40;;;;;;5035752;28;20197;-68
2023/03/20 09:18:45;;;;;;;3.77;1.63;;;11.40;95.00;;;;;;5018344;28;20524;-68
2023/03/20 09:21:10;;;;;;;1.97;1.17;;;11.50;94.80;;;;;;5035526;28;20167;-68
2023/03/20 09:23:36;;;;;;;0.40;0.40;;;11.60;94.40;;;;;;5035675;28;20198;-68
2023/03/20 09:26:02;;;;;;;0.30;0.30;;;11.60;94.40;;;;;;5035648;28;20171;-69
2023/03/20 09:28:27;;;;;;;0.80;0.80;;;11.60;94.90;;;;;;5035813;28;20175;-68
2023/03/20 09:30:57;;;;;;;3.63;3.00;;;11.70;94.30;;;;;;5037060;28;20250;-69
2023/03/20 09:33:23;;;;;;;1.70;1.40;;;11.70;94.00;;;;;;5036058;28;20198;-67
2023/03/20 09:35:49;;;;;;;1.33;0.70;;;11.70;94.20;;;;;;5035024;28;20983;-68
2023/03/20 09:38:14;;;;;;;0.43;0.37;;;11.70;94.00;;;;;;5017673;28;20518;-68
2023/03/20 09:40:50;;;;;;;0.40;0.40;;;11.80;94.20;;;;;;5017938;28;20167;-69
2023/03/20 09:43:21;;;;;;;0.60;0.60;;;11.90;93.40;;;;;;5035303;28;20206;-68
2023/03/20 09:46:07;;;;;;;0.73;0.73;;;12.10;92.90;;;;;;5035578;28;20417;-68
2023/03/20 09:48:55;;;;;;;2.27;2.10;;;11.90;91.80;;;;;;5035230;28;20785;-69
2023/03/20 09:51:30;;;;;;;0.40;0.40;;;11.80;91.40;;;;;;5035041;28;20429;-67
2023/03/20 09:54:01;;;;;;;0.97;0.97;;;11.90;90.60;;;;;;5035622;28;20395;-69
2023/03/20 09:56:29;;;;;;;0.63;0.63;;;11.90;90.10;;;;;;5035144;28;20533;-69
2023/03/20 09:58:58;;;;;;;0.30;0.30;;;12.10;90.70;;;;;;5034997;28;20409;-70
2023/03/20 10:01:31;;;;;;;0.30;0.30;;;12.30;90.60;;;;;;5035008;28;20426;-68
2023/03/20 10:04:00;;;;;;;0.60;0.60;;;12.30;90.50;;;;;;5034273;28;20464;-68
2023/03/20 10:06:26;;;;;;;0.40;0.40;;;12.20;89.70;;;;;;5034894;28;20424;-68
2023/03/20 10:08:52;;;;;;;0.40;0.40;;;12.20;89.40;;;;;;5017517;28;20413;-68
2023/03/20 10:11:31;;;;;;;0.40;0.40;;;12.10;89.50;;;;;;5034734;28;20665;-69
2023/03/20 10:14:17;;;;;;;1.63;0.50;;;12.20;90.30;;;;;;5034682;28;20155;-68
2023/03/20 10:17:12;;;;;;;0.47;0.47;;;12.30;90.00;;;;;;5016732;28;20456;-69
2023/03/20 10:19:38;;;;;;;0.80;0.80;;;12.40;89.80;;;;;;5034512;28;20402;-67
2023/03/20 10:22:24;;;;;;;1.50;0.80;;;12.50;89.30;;;;;;5016574;28;20459;-68
2023/03/20 10:25:12;;;;;;;0.80;0.60;;;12.50;89.30;;;;;;5016597;28;20674;-67
2023/03/20 10:27:50;;;;;;;0.60;0.60;;;12.20;89.30;;;;;;5034106;28;20463;-69
2023/03/20 10:30:33;;;;;;;0.50;0.50;;;11.90;90.70;;;;;;5034411;28;20409;-68
2023/03/20 10:33:55;;;;;;;0.37;0.37;;;12.00;91.10;;;;;;5034313;28;20455;-69
2023/03/20 10:36:51;;;;;;;0.67;0.60;;;12.20;90.70;;;;;;4956789;28;20458;-68
2023/03/20 10:39:58;;;;;;;0.37;0.37;;;12.50;89.40;;;;;;4973736;28;20447;-69
2023/03/20 10:42:32;;;;;;;0.30;0.30;;;12.70;89.70;;;;;;4989600;28;20447;-68
2023/03/20 10:45:32;;;;;;;0.30;0.30;;;12.70;88.50;;;;;;4992496;28;20430;-68
2023/03/20 10:48:01;;;;;;;0.60;0.60;;;12.50;89.00;;;;;;5020459;28;20424;-69
2023/03/20 10:50:42;;;;;;;0.87;0.40;;;12.40;89.10;;;;;;5034034;28;20404;-68
2023/03/20 10:53:19;;;;;;;0.40;0.40;;;12.50;88.80;;;;;;5033999;28;20431;-68
2023/03/20 10:55:45;;;;;;;0.60;0.40;;;12.60;88.10;;;;;;5033837;28;20492;-69
2023/03/20 10:58:22;;;;;;;0.50;0.50;;;12.80;88.70;;;;;;5033743;28;20891;-69
2023/03/20 11:00:48;;;;;;;0.40;0.40;;;13.10;87.20;;;;;;5034188;28;20411;-68
2023/03/20 11:03:22;;;;;;;0.40;0.40;;;13.10;86.20;;;;;;5033698;28;20431;-68
2023/03/20 11:05:53;;;;;;;0.30;0.30;;;12.90;87.00;;;;;;5034018;28;20408;-68
2023/03/20 11:08:23;;;;;;;0.53;0.53;;;12.80;87.30;;;;;;5033986;28;20787;-69
2023/03/20 11:10:59;;;;;;;0.50;0.50;;;12.70;87.60;;;;;;5033776;28;20400;-68
2023/03/20 11:13:29;;;;;;;1.33;1.27;;;12.80;88.10;;;;;;5034168;28;20429;-68
2023/03/20 11:15:55;;;;;;;0.67;0.53;;;12.90;90.20;;;;;;5033269;28;20452;-67
2023/03/20 11:18:24;;;;;;;0.37;0.37;;;12.90;89.00;;;;;;5033475;28;20402;-67
2023/03/20 11:20:56;;;;;;;0.30;0.30;;;13.00;88.30;;;;;;5033767;28;20435;-69
2023/03/20 11:23:34;;;;;;;0.60;0.53;;;13.10;86.40;;;;;;5034150;28;20421;-68
2023/03/20 11:26:03;;;;;;;0.50;0.50;;;13.20;87.60;;;;;;5033751;28;20485;-69
2023/03/20 11:28:30;;;;;;;0.40;0.40;;;12.90;86.70;;;;;;5033387;28;20471;-69
2023/03/20 11:31:25;;;;;;;0.40;0.40;;;12.50;87.60;;;;;;5033663;28;20420;-69
2023/03/20 11:33:59;;;;;;;0.40;0.40;;;12.60;88.30;;;;;;5025603;28;20429;-69
2023/03/20 11:36:36;;;;;;;0.40;0.40;;;12.80;87.90;;;;;;5033470;28;20535;-68
2023/03/20 11:39:21;;;;;;;0.50;0.50;;;13.10;86.10;;;;;;5033531;28;20400;-69
2023/03/20 11:41:51;;;;;;;0.40;0.40;;;13.40;84.50;;;;;;5033428;28;20452;-69
2023/03/20 11:44:30;;;;;;;0.40;0.40;;;13.80;84.10;;;;;;5033132;28;21020;-69
2023/03/20 11:46:56;;;;;;;0.40;0.40;;;14.10;83.00;;;;;;5033172;28;20830;-69
2023/03/20 11:49:24;;;;;;;0.40;0.40;;;14.10;81.30;;;;;;5033371;28;20397;-68
2023/03/20 11:51:51;;;;;;;0.40;0.40;;;14.20;83.10;;;;;;5033469;28;20812;-69
2023/03/20 11:54:21;;;;;;;0.30;0.30;;;14.20;82.50;;;;;;5033441;28;20401;-68
2023/03/20 11:56:55;;;;;;;0.30;0.30;;;14.10;80.70;;;;;;5033017;28;20442;-68
2023/03/20 11:59:21;;;;;;;0.40;0.40;;;14.00;81.00;;;;;;5033673;28;20397;-69
2023/03/20 12:01:51;;;;;;;0.30;0.30;;;13.90;81.10;;;;;;5033130;28;20508;-69
2023/03/20 12:04:19;;;;;;;0.47;0.47;;;13.90;81.60;;;;;;5033334;28;20766;-69
2023/03/20 12:06:52;;;;;;;0.70;0.47;;;13.70;81.60;;;;;;5032976;28;20502;-69
2023/03/20 12:09:47;;;;;;;0.50;0.50;;;13.60;83.50;;;;;;5033041;28;20568;-69
2023/03/20 12:12:41;;;;;;;0.50;0.50;;;13.80;82.40;;;;;;5033429;28;20434;-69
2023/03/20 12:15:33;;;;;;;1.07;0.67;;;14.10;81.00;;;;;;5025162;28;20816;-69
2023/03/20 12:18:36;;;;;;;0.30;0.30;;;14.30;81.70;;;;;;5032768;28;20399;-68
2023/03/20 12:21:21;;;;;;;0.40;0.40;;;14.30;78.80;;;;;;5033162;28;20394;-68
2023/03/20 12:24:00;;;;;;;0.40;0.40;;;14.30;79.20;;;;;;5032845;28;20380;-67
2023/03/20 12:26:34;;;;;;;0.40;0.40;;;14.50;80.50;;;;;;5034063;28;20755;-68
2023/03/20 12:29:05;;;;;;;1.03;1.03;;;14.60;77.80;;;;;;5036924;28;20398;-69
2023/03/20 12:31:54;;;;;;;0.30;0.30;;;14.70;76.10;;;;;;5037152;28;20412;-69
2023/03/20 12:34:26;;;;;;;0.60;0.60;;;14.60;75.20;;;;;;5037199;28;20875;-69
2023/03/20 12:36:56;;;;;;;0.40;0.40;;;14.50;76.80;;;;;;5036692;28;20795;-69
2023/03/20 12:39:35;;;;;;;0.30;0.30;;;14.40;77.90;;;;;;5036861;28;20730;-69
2023/03/20 12:42:32;;;;;;;0.30;0.30;;;14.40;78.80;;;;;;5036418;28;20417;-69
2023/03/20 12:45:13;;;;;;;0.40;0.40;;;14.50;77.60;;;;;;5036762;28;20461;-69
2023/03/20 12:48:02;;;;;;;0.50;0.50;;;14.40;75.50;;;;;;5036249;28;20409;-69
2023/03/20 12:50:40;;;;;;;1.20;1.07;;;14.30;76.20;;;;;;5036661;28;20877;-69
2023/03/20 12:53:45;;;;;;;0.40;0.40;;;14.20;75.50;;;;;;5036072;28;20426;-69
2023/03/20 12:56:19;;;;;;;0.70;0.67;;;14.30;78.00;;;;;;5036057;28;20905;-69
2023/03/20 12:59:13;;;;;;;1.63;1.47;;;14.10;74.30;;;;;;5036345;28;20394;-69
2023/03/20 13:01:41;;;;;;;1.43;1.13;;;13.40;74.50;;;;;;5036373;28;20392;-69
2023/03/20 13:04:31;;;;;;;0.50;0.50;;;13.10;76.10;;;;;;5036033;28;20397;-69
2023/03/20 13:07:02;;;;;;;0.30;0.30;;;13.00;77.00;;;;;;5035626;28;20765;-68
2023/03/20 13:09:50;;;;;;;0.50;0.50;;;12.80;77.40;;;;;;5035722;28;20762;-69
2023/03/20 13:12:22;;;;;;;0.90;0.50;;;12.80;77.20;;;;;;5035868;28;20451;-68
2023/03/20 13:15:01;;;;;;;0.47;0.47;;;13.10;78.50;;;;;;5035943;28;20409;-69
2023/03/20 13:17:43;;;;;;;2.30;1.80;;;13.20;78.50;;;;;;5035813;28;20457;-69